Time;durP1;ratioP1;P1;durP2;ratioP2;P2;SDS_P1;SDS_P2;PMS_P1;PMS_P2;Temp;Humidity;BMP_temperature;BMP_pressure;BME280_temperature;BME280_humidity;BME280_pressure;Samples;Min_cycle;Max_cycle;Signal;HPM_P1;HPM_P2
2022/02/27 00:00:06;;;;;;;88.50;47.10;;;;;;;2.04;58.84;100549.67;106000;1273;110689;-69
2022/02/27 00:02:54;;;;;;;91.60;50.70;;;;;;;1.96;58.72;100553.64;106047;1274;96531;-69
2022/02/27 00:05:23;;;;;;;91.40;46.70;;;;;;;1.91;58.94;100556.67;106033;1273;108512;-70
2022/02/27 00:07:51;;;;;;;84.70;46.60;;;;;;;1.87;58.65;100560.05;106034;1273;96495;-69
2022/02/27 00:10:21;;;;;;;89.00;48.90;;;;;;;1.82;58.81;100558.55;106019;1273;96583;-68
2022/02/27 00:12:51;;;;;;;92.80;48.10;;;;;;;1.76;58.93;100557.39;106087;1274;111164;-67
2022/02/27 00:15:19;;;;;;;95.30;48.30;;;;;;;1.70;58.75;100554.83;106094;1273;97159;-67
2022/02/27 00:17:47;;;;;;;92.40;49.50;;;;;;;1.63;58.88;100557.02;106019;1274;108358;-67
2022/02/27 00:20:15;;;;;;;93.60;51.30;;;;;;;1.59;58.94;100558.46;106001;1274;96685;-67
2022/02/27 00:22:43;;;;;;;84.40;46.90;;;;;;;1.54;59.10;100555.72;106030;1274;96699;-68
2022/02/27 00:25:11;;;;;;;91.70;50.00;;;;;;;1.47;58.96;100554.23;105994;1274;110693;-68
2022/02/27 00:27:38;;;;;;;96.30;52.00;;;;;;;1.41;59.02;100552.73;106002;1274;96510;-68
2022/02/27 00:30:10;;;;;;;104.30;49.70;;;;;;;1.37;58.87;100553.65;105974;1273;108481;-66
2022/02/27 00:32:39;;;;;;;90.80;47.20;;;;;;;1.34;59.03;100556.98;105985;1273;96435;-67
2022/02/27 00:35:08;;;;;;;93.20;49.00;;;;;;;1.33;58.98;100556.83;106071;1273;96609;-67
2022/02/27 00:37:37;;;;;;;90.50;49.20;;;;;;;1.30;59.15;100561.41;106149;1273;110676;-67
2022/02/27 00:40:06;;;;;;;92.90;46.40;;;;;;;1.28;59.09;100564.23;106116;1273;94254;-69
2022/02/27 00:42:34;;;;;;;90.90;46.80;;;;;;;1.24;59.04;100565.14;106074;1273;107664;-68
2022/02/27 00:45:05;;;;;;;94.20;49.30;;;;;;;1.19;59.28;100565.19;106015;1273;96611;-68
2022/02/27 00:47:34;;;;;;;90.50;46.60;;;;;;;1.16;59.23;100565.22;105982;1273;95636;-68
2022/02/27 00:50:02;;;;;;;85.30;45.30;;;;;;;1.13;59.25;100564.02;106109;1273;110562;-64
2022/02/27 00:52:30;;;;;;;84.20;45.40;;;;;;;1.11;59.30;100561.41;106179;1273;97116;-66
2022/02/27 00:54:58;;;;;;;91.40;45.70;;;;;;;1.08;59.36;100562.31;106127;1273;107367;-65
2022/02/27 00:57:26;;;;;;;85.20;46.30;;;;;;;1.05;59.31;100558.50;106091;1273;95923;-67
2022/02/27 00:59:56;;;;;;;85.00;45.60;;;;;;;1.02;59.32;100559.57;106133;1273;96543;-62
2022/02/27 01:02:26;;;;;;;88.90;46.10;;;;;;;1.00;59.36;100562.58;106146;1273;110251;-65
2022/02/27 01:04:55;;;;;;;82.50;43.70;;;;;;;0.97;59.31;100559.29;106109;1273;96511;-68
2022/02/27 01:07:23;;;;;;;84.70;42.30;;;;;;;0.94;59.26;100559.83;106139;1273;108416;-62
2022/02/27 01:09:50;;;;;;;74.00;41.60;;;;;;;0.89;59.23;100562.33;106110;1273;96605;-68
2022/02/27 01:12:18;;;;;;;80.90;42.90;;;;;;;0.83;59.28;100558.52;106135;1272;96620;-67
2022/02/27 01:14:48;;;;;;;78.10;41.50;;;;;;;0.78;59.33;100561.89;106116;1273;109638;-67
2022/02/27 01:17:17;;;;;;;76.10;40.50;;;;;;;0.72;59.27;100561.06;106201;1273;96490;-65
2022/02/27 01:19:45;;;;;;;76.00;41.90;;;;;;;0.66;59.32;100557.97;106091;1273;108571;-66
2022/02/27 01:22:16;;;;;;;69.70;38.80;;;;;;;0.63;59.37;100562.01;105935;1273;95056;-66
2022/02/27 01:24:46;;;;;;;74.40;38.70;;;;;;;0.59;59.44;100559.95;106477;1274;94258;-65
2022/02/27 01:27:17;;;;;;;72.40;40.10;;;;;;;0.56;59.19;100559.98;107650;1274;110623;-66
2022/02/27 01:29:45;;;;;;;75.30;40.10;;;;;;;0.54;59.39;100557.38;105980;1274;96619;-65
2022/02/27 01:32:16;;;;;;;74.10;39.70;;;;;;;0.53;59.48;100558.77;105991;1273;108397;-66
2022/02/27 01:34:44;;;;;;;72.80;38.80;;;;;;;0.52;59.34;100554.95;105981;1274;96537;-66
2022/02/27 01:37:13;;;;;;;74.40;36.80;;;;;;;0.48;59.26;100550.77;106066;1274;96641;-66
2022/02/27 01:39:41;;;;;;;71.50;37.80;;;;;;;0.43;59.41;100551.50;105913;1274;110594;-66
2022/02/27 01:42:14;;;;;;;73.90;37.70;;;;;;;0.42;59.49;100546.80;106215;1274;96511;-66
2022/02/27 01:44:47;;;;;;;72.00;38.40;;;;;;;0.40;59.50;100553.63;106781;1274;108309;-67
2022/02/27 01:47:15;;;;;;;74.60;37.80;;;;;;;0.38;59.41;100553.82;107939;1274;94307;-67
2022/02/27 01:49:47;;;;;;;70.80;36.70;;;;;;;0.35;59.41;100554.02;107942;1273;94319;-66
2022/02/27 01:52:17;;;;;;;69.50;38.60;;;;;;;0.35;59.64;100559.25;106527;1273;109966;-66
2022/02/27 01:54:46;;;;;;;75.90;39.70;;;;;;;0.33;59.63;100561.00;106033;1273;96022;-66
2022/02/27 01:57:16;;;;;;;73.60;37.30;;;;;;;0.32;59.63;100559.61;106049;1273;108877;-67
2022/02/27 01:59:46;;;;;;;73.30;38.20;;;;;;;0.32;59.68;100561.71;106017;1273;96490;-66
2022/02/27 02:02:16;;;;;;;72.90;39.00;;;;;;;0.30;59.79;100561.71;106080;1273;95041;-66
2022/02/27 02:04:45;;;;;;;75.50;38.60;;;;;;;0.27;59.67;100560.34;106079;1273;111005;-65
2022/02/27 02:07:15;;;;;;;76.00;37.90;;;;;;;0.25;59.77;100558.09;106079;1273;96606;-66
2022/02/27 02:09:48;;;;;;;71.30;38.40;;;;;;;0.26;59.88;100556.52;106076;1273;108372;-66
2022/02/27 02:12:20;;;;;;;81.30;39.30;;;;;;;0.26;59.81;100560.00;106012;1274;96551;-66
2022/02/27 02:14:50;;;;;;;74.10;38.90;;;;;;;0.25;60.00;100560.17;106071;1273;94227;-68
2022/02/27 02:17:18;;;;;;;71.80;39.00;;;;;;;0.24;59.82;100560.71;106058;1271;111341;-67
2022/02/27 02:19:56;;;;;;;77.50;40.80;;;;;;;0.22;59.92;100560.02;106059;1273;94267;-67
2022/02/27 02:22:24;;;;;;;77.60;41.90;;;;;;;0.20;59.85;100556.90;105984;1274;105490;-67
2022/02/27 02:24:52;;;;;;;70.60;39.40;;;;;;;0.17;60.00;100559.53;106013;1273;97576;-64
2022/02/27 02:27:22;;;;;;;78.60;40.70;;;;;;;0.16;59.93;100564.60;105994;1273;96500;-67
2022/02/27 02:29:52;;;;;;;70.90;39.10;;;;;;;0.14;60.14;100559.38;106001;1273;110678;-67
2022/02/27 02:32:20;;;;;;;72.20;38.10;;;;;;;0.13;60.06;100563.75;105965;1273;95360;-67
2022/02/27 02:34:48;;;;;;;71.00;36.80;;;;;;;0.11;60.00;100566.19;106026;1273;108338;-67
2022/02/27 02:37:16;;;;;;;68.70;37.30;;;;;;;0.08;60.14;100569.52;106051;1274;96533;-68
2022/02/27 02:39:46;;;;;;;66.10;37.70;;;;;;;0.04;60.12;100570.08;106018;1274;96631;-67
2022/02/27 02:42:16;;;;;;;73.60;39.40;;;;;;;-0.00;60.08;100572.18;106049;1274;110685;-65
2022/02/27 02:44:44;;;;;;;71.80;36.80;;;;;;;-0.03;60.11;100575.52;106045;1273;94907;-67
2022/02/27 02:47:15;;;;;;;71.10;37.80;;;;;;;-0.04;60.23;100574.65;105981;1273;108431;-67
2022/02/27 02:49:45;;;;;;;75.00;38.90;;;;;;;-0.04;60.27;100575.36;106110;1273;96530;-68
2022/02/27 02:52:16;;;;;;;71.10;36.30;;;;;;;-0.05;60.38;100576.05;106067;1273;96524;-67
2022/02/27 02:54:43;;;;;;;71.80;36.90;;;;;;;-0.05;60.40;100581.64;106041;1273;110652;-66
2022/02/27 02:57:14;;;;;;;71.10;39.00;;;;;;;-0.08;60.33;100584.77;106032;1273;96629;-66
2022/02/27 02:59:43;;;;;;;69.10;38.10;;;;;;;-0.10;60.26;100584.97;106080;1273;108255;-66
2022/02/27 03:02:14;;;;;;;69.00;36.70;;;;;;;-0.12;60.51;100585.50;106080;1273;96518;-65
2022/02/27 03:04:42;;;;;;;72.10;38.50;;;;;;;-0.15;60.38;100589.86;106145;1273;97225;-67
2022/02/27 03:07:10;;;;;;;78.50;39.70;;;;;;;-0.18;60.32;100599.47;106021;1273;110632;-66
2022/02/27 03:09:39;;;;;;;76.30;39.70;;;;;;;-0.20;60.32;100601.75;106034;1273;96529;-66
2022/02/27 03:12:09;;;;;;;67.20;37.50;;;;;;;-0.21;60.42;100606.45;106030;1273;108645;-65
2022/02/27 03:14:37;;;;;;;63.80;35.60;;;;;;;-0.22;60.58;100608.73;106022;1273;96642;-67
2022/02/27 03:17:04;;;;;;;67.50;35.10;;;;;;;-0.20;60.78;100608.89;106076;1273;94232;-66
2022/02/27 03:19:32;;;;;;;74.50;38.50;;;;;;;-0.18;60.57;100618.98;105983;1274;110690;-65
2022/02/27 03:22:03;;;;;;;68.40;36.20;;;;;;;-0.17;60.60;100621.77;106016;1273;96601;-68
2022/02/27 03:24:31;;;;;;;63.30;36.50;;;;;;;-0.13;60.73;100621.42;105991;1273;108977;-64
2022/02/27 03:26:59;;;;;;;61.10;33.90;;;;;;;-0.11;60.71;100620.89;105946;1276;97121;-67
2022/02/27 03:29:29;;;;;;;72.90;37.00;;;;;;;-0.08;60.84;100623.84;106075;1273;96488;-66
2022/02/27 03:31:59;;;;;;;66.70;36.30;;;;;;;-0.05;60.84;100624.70;106050;1273;111074;-66
2022/02/27 03:34:27;;;;;;;65.90;34.00;;;;;;;-0.03;61.02;100627.14;106030;1273;151422;-66
2022/02/27 03:36:55;;;;;;;67.30;36.80;;;;;;;0.00;61.04;100626.77;106081;1274;108049;-66
2022/02/27 03:39:25;;;;;;;65.00;33.70;;;;;;;0.03;60.94;100629.55;105949;1275;96647;-66
2022/02/27 03:41:53;;;;;;;65.10;34.60;;;;;;;0.05;61.14;100633.38;106061;1274;97210;-67
2022/02/27 03:44:22;;;;;;;63.00;34.50;;;;;;;0.07;61.16;100633.04;106079;1274;110454;-66
2022/02/27 03:46:52;;;;;;;65.00;34.90;;;;;;;0.09;61.13;100630.75;106031;1274;96400;-66
2022/02/27 03:49:22;;;;;;;63.60;33.40;;;;;;;0.11;61.13;100631.96;106069;1274;108414;-68
2022/02/27 03:51:50;;;;;;;63.80;35.00;;;;;;;0.14;61.30;100633.00;106082;1274;96560;-66
2022/02/27 03:54:21;;;;;;;69.30;37.40;;;;;;;0.18;61.25;100634.91;106134;1274;96403;-69
2022/02/27 03:56:51;;;;;;;64.50;34.50;;;;;;;0.21;61.26;100638.53;106049;1274;110708;-66
2022/02/27 03:59:19;;;;;;;60.80;34.40;;;;;;;0.23;61.29;100638.88;106107;1274;94294;-66
2022/02/27 04:01:47;;;;;;;67.10;34.60;;;;;;;0.26;61.33;100640.79;106063;1273;108366;-66
2022/02/27 04:04:17;;;;;;;62.60;34.50;;;;;;;0.27;61.43;100642.17;105984;1274;96571;-66
2022/02/27 04:06:44;;;;;;;65.00;34.50;;;;;;;0.29;61.29;100642.00;106010;1274;97785;-65
2022/02/27 04:09:12;;;;;;;63.30;36.30;;;;;;;0.32;61.39;100637.61;106006;1273;110635;-66
2022/02/27 04:11:40;;;;;;;66.70;38.00;;;;;;;0.34;61.38;100633.77;106134;1273;96518;-66
2022/02/27 04:14:08;;;;;;;70.00;37.00;;;;;;;0.32;61.38;100633.43;106119;1273;108250;-64
2022/02/27 04:16:38;;;;;;;61.70;35.20;;;;;;;0.29;61.36;100634.14;106101;1273;94433;-66
2022/02/27 04:19:08;;;;;;;69.20;38.30;;;;;;;0.31;61.44;100630.46;106059;1273;95205;-68
2022/02/27 04:21:36;;;;;;;67.60;38.70;;;;;;;0.34;61.66;100636.21;105989;1273;109409;-67
2022/02/27 04:24:07;;;;;;;71.70;38.40;;;;;;;0.36;61.59;100637.41;106022;1273;96543;-66
2022/02/27 04:26:34;;;;;;;68.50;38.50;;;;;;;0.37;61.52;100638.47;106039;1273;107052;-67
2022/02/27 04:29:02;;;;;;;71.60;38.70;;;;;;;0.37;61.61;100637.42;106107;1273;95636;-67
2022/02/27 04:31:30;;;;;;;66.80;38.10;;;;;;;0.38;61.66;100636.19;106042;1273;94266;-67
2022/02/27 04:34:05;;;;;;;70.70;39.30;;;;;;;0.40;61.67;100641.08;106139;1273;110824;-68
2022/02/27 04:36:33;;;;;;;72.80;42.20;;;;;;;0.42;61.79;100641.58;106121;1273;96645;-66
2022/02/27 04:39:05;;;;;;;66.90;36.50;;;;;;;0.44;61.65;100635.27;106089;1273;110669;-67
2022/02/27 04:41:33;;;;;;;67.70;36.10;;;;;;;0.42;61.58;100634.59;106041;1273;97345;-68
2022/02/27 04:44:04;;;;;;;65.70;36.00;;;;;;;0.40;61.68;100638.27;106034;1273;96440;-67
2022/02/27 04:46:33;;;;;;;65.80;35.60;;;;;;;0.41;61.88;100634.25;106108;1274;107754;-67
2022/02/27 04:49:03;;;;;;;64.80;35.70;;;;;;;0.41;61.90;100633.73;106136;1274;96487;-66
2022/02/27 04:51:33;;;;;;;60.60;34.80;;;;;;;0.41;61.91;100638.79;106065;1273;108351;-67
2022/02/27 04:54:01;;;;;;;64.20;33.90;;;;;;;0.43;61.98;100634.77;106080;1273;94267;-67
2022/02/27 04:56:28;;;;;;;60.20;31.80;;;;;;;0.45;62.13;100635.45;105954;1274;96531;-67
2022/02/27 04:58:59;;;;;;;58.20;33.10;;;;;;;0.47;62.06;100635.61;105960;1274;110625;-66
2022/02/27 05:01:27;;;;;;;61.40;34.00;;;;;;;0.48;62.10;100634.91;105967;1274;96504;-68
2022/02/27 05:03:56;;;;;;;60.10;32.80;;;;;;;0.50;61.96;100636.81;106053;1274;108398;-66
2022/02/27 05:06:28;;;;;;;58.00;33.20;;;;;;;0.53;62.07;100634.71;105990;1274;96006;-66
2022/02/27 05:08:58;;;;;;;60.60;34.50;;;;;;;0.55;62.21;100637.14;106041;1273;96663;-66
2022/02/27 05:11:30;;;;;;;61.20;32.40;;;;;;;0.57;61.98;100639.23;106101;1273;110596;-66
2022/02/27 05:13:57;;;;;;;65.00;34.10;;;;;;;0.56;62.06;100640.44;106111;1273;96544;-67
2022/02/27 05:16:29;;;;;;;65.70;35.50;;;;;;;0.56;62.20;100639.23;106111;1273;108573;-67
2022/02/27 05:19:01;;;;;;;65.60;32.90;;;;;;;0.56;62.08;100636.44;106005;1276;96535;-66
2022/02/27 05:21:29;;;;;;;62.00;33.80;;;;;;;0.58;62.21;100637.12;106105;1273;96632;-66
2022/02/27 05:23:56;;;;;;;60.60;31.90;;;;;;;0.60;62.23;100635.38;106088;1273;110400;-67
2022/02/27 05:26:31;;;;;;;58.90;32.20;;;;;;;0.62;62.21;100636.91;106102;1273;94210;-66
2022/02/27 05:28:59;;;;;;;61.70;32.70;;;;;;;0.60;62.19;100636.58;106130;1273;106907;-65
2022/02/27 05:31:28;;;;;;;62.10;31.90;;;;;;;0.58;62.28;100636.94;106061;1274;96483;-66
2022/02/27 05:33:58;;;;;;;61.50;33.10;;;;;;;0.58;62.28;100639.40;106222;1273;96536;-64
2022/02/27 05:36:29;;;;;;;53.80;28.70;;;;;;;0.58;62.36;100634.16;106165;1273;110368;-66
2022/02/27 05:38:57;;;;;;;56.10;30.80;;;;;;;0.58;62.43;100630.31;106149;1273;96403;-66
2022/02/27 05:41:25;;;;;;;55.10;30.00;;;;;;;0.56;62.32;100632.25;106140;1273;107701;-65
2022/02/27 05:43:59;;;;;;;;;;;;;;;0.55;62.52;100634.17;106186;1273;96631;-65
2022/02/27 05:46:30;;;;;;;53.00;30.10;;;;;;;0.52;62.56;100637.51;106181;1273;94377;-67
2022/02/27 05:48:58;;;;;;;52.00;28.90;;;;;;;0.51;62.38;100640.66;106197;1273;110655;-66
2022/02/27 05:51:26;;;;;;;56.50;28.40;;;;;;;0.50;62.49;100641.71;106159;1273;96542;-67
2022/02/27 05:53:58;;;;;;;57.50;27.80;;;;;;;0.49;62.49;100641.54;106153;1273;108397;-69
2022/02/27 05:56:30;;;;;;;50.20;26.00;;;;;;;0.48;62.53;100641.71;106209;1273;96534;-66
2022/02/27 05:58:57;;;;;;;52.10;29.50;;;;;;;0.46;62.48;100643.48;106182;1273;96520;-66
2022/02/27 06:01:29;;;;;;;54.60;28.80;;;;;;;0.45;62.52;100648.38;106191;1273;112140;-66
2022/02/27 06:04:05;;;;;;;52.70;28.70;;;;;;;0.43;62.46;100651.34;106166;1273;94900;-66
2022/02/27 06:06:33;;;;;;;56.50;28.40;;;;;;;0.41;62.60;100649.61;106149;1273;108401;-67
2022/02/27 06:09:01;;;;;;;53.30;27.40;;;;;;;0.40;62.61;100652.77;106170;1273;94229;-67
2022/02/27 06:11:29;;;;;;;55.90;29.30;;;;;;;0.38;62.54;100650.85;106134;1274;96482;-67
2022/02/27 06:14:06;;;;;;;53.60;28.60;;;;;;;0.37;62.80;100653.83;106158;1273;110712;-67
2022/02/27 06:16:38;;;;;;;47.40;25.90;;;;;;;0.36;62.72;100654.88;106211;1273;96542;-67
2022/02/27 06:19:06;;;;;;;49.80;25.20;;;;;;;0.35;62.72;100655.06;106161;1273;108393;-66
2022/02/27 06:21:34;;;;;;;51.10;26.60;;;;;;;0.33;62.67;100657.67;106195;1273;96601;-65
2022/02/27 06:24:06;;;;;;;50.40;26.50;;;;;;;0.33;62.85;100658.73;106137;1273;95320;-67
2022/02/27 06:26:34;;;;;;;53.90;27.20;;;;;;;0.33;62.83;100656.64;106172;1275;112793;-67
2022/02/27 06:29:04;;;;;;;48.20;26.00;;;;;;;0.32;62.74;100661.88;106079;1276;96690;-66
2022/02/27 06:31:32;;;;;;;50.70;28.80;;;;;;;0.32;62.84;100661.36;105983;1274;108103;-65
2022/02/27 06:34:06;;;;;;;52.60;26.80;;;;;;;0.32;62.70;100666.41;105957;1276;96460;-66
2022/02/27 06:36:34;;;;;;;53.70;28.30;;;;;;;0.31;62.70;100669.04;106014;1275;96591;-66
2022/02/27 06:39:06;;;;;;;58.40;31.00;;;;;;;0.29;62.80;100676.38;105964;1276;110698;-67
2022/02/27 06:41:34;;;;;;;58.50;31.80;;;;;;;0.28;62.80;100675.15;106023;1275;96566;-66
2022/02/27 06:44:05;;;;;;;58.30;30.60;;;;;;;0.28;62.69;100673.93;106000;1275;108698;-66
2022/02/27 06:46:33;;;;;;;58.30;28.90;;;;;;;0.28;62.91;100674.63;106009;1274;94261;-66
2022/02/27 06:49:04;;;;;;;61.00;30.60;;;;;;;0.29;62.91;100676.02;106023;1274;96520;-66
2022/02/27 06:51:33;;;;;;;58.00;31.90;;;;;;;0.30;62.85;100674.79;105983;1274;110784;-66
2022/02/27 06:54:01;;;;;;;58.40;32.30;;;;;;;0.31;62.93;100676.54;106023;1274;96545;-67
2022/02/27 06:56:32;;;;;;;66.70;33.70;;;;;;;0.33;62.95;100684.91;106000;1274;108654;-66
2022/02/27 06:59:00;;;;;;;61.20;31.80;;;;;;;0.37;62.97;100691.00;106007;1274;94243;-67
2022/02/27 07:01:28;;;;;;;68.60;35.70;;;;;;;0.40;62.95;100686.98;106089;1274;96542;-67
2022/02/27 07:04:00;;;;;;;63.90;33.20;;;;;;;0.43;62.96;100690.26;106092;1274;110598;-67
2022/02/27 07:06:29;;;;;;;60.90;32.00;;;;;;;0.46;63.24;100695.14;106002;1276;94967;-67
2022/02/27 07:08:57;;;;;;;57.60;29.40;;;;;;;0.49;63.20;100696.86;105985;1275;108199;-66
2022/02/27 07:11:25;;;;;;;58.40;30.70;;;;;;;0.50;63.15;100703.67;105994;1276;96592;-67
2022/02/27 07:13:52;;;;;;;63.00;34.10;;;;;;;0.51;63.21;100709.25;106039;1275;94256;-66
2022/02/27 07:16:22;;;;;;;70.50;37.20;;;;;;;0.55;63.35;100706.10;105988;1275;110934;-68
2022/02/27 07:18:57;;;;;;;61.60;32.20;;;;;;;0.63;63.57;100708.33;106027;1274;96594;-67
2022/02/27 07:21:25;;;;;;;58.30;28.60;;;;;;;0.69;63.37;100709.33;106000;1274;107677;-67
2022/02/27 07:23:53;;;;;;;60.40;30.20;;;;;;;0.76;63.56;100716.81;106003;1274;95091;-69
2022/02/27 07:26:27;;;;;;;57.10;29.70;;;;;;;0.84;63.58;100721.13;105985;1274;96511;-69
2022/02/27 07:28:54;;;;;;;56.10;27.30;;;;;;;0.93;63.60;100723.86;106068;1274;110720;-66
2022/02/27 07:31:23;;;;;;;55.40;27.50;;;;;;;1.02;63.56;100725.73;105942;1276;96733;-67
2022/02/27 07:33:53;;;;;;;53.80;27.20;;;;;;;1.13;63.59;100720.92;105999;1274;108485;-66
2022/02/27 07:36:22;;;;;;;55.50;25.60;;;;;;;1.25;63.78;100722.59;105946;1276;98201;-65
2022/02/27 07:38:50;;;;;;;44.50;22.20;;;;;;;1.35;63.75;100722.17;106021;1274;94250;-67
2022/02/27 07:41:18;;;;;;;46.30;24.00;;;;;;;1.44;63.76;100719.46;105966;1274;111060;-67
2022/02/27 07:43:46;;;;;;;47.00;25.20;;;;;;;1.56;63.82;100717.45;105994;1274;95069;-66
2022/02/27 07:46:21;;;;;;;45.20;22.90;;;;;;;1.64;63.71;100714.04;106063;1273;108396;-68
2022/02/27 07:48:52;;;;;;;44.90;24.20;;;;;;;1.71;63.91;100717.82;105887;1275;96537;-68
2022/02/27 07:51:26;;;;;;;47.70;23.40;;;;;;;1.78;63.92;100713.73;106010;1274;96424;-66
2022/02/27 07:53:55;;;;;;;49.90;25.80;;;;;;;1.85;63.76;100714.02;105953;1276;110663;-65
2022/02/27 07:56:24;;;;;;;48.70;24.10;;;;;;;1.91;63.80;100710.27;105942;1276;96647;-66
2022/02/27 07:58:55;;;;;;;44.90;24.10;;;;;;;1.97;63.78;100704.98;106043;1275;108277;-67
2022/02/27 08:01:26;;;;;;;48.60;26.20;;;;;;;2.02;63.68;100706.13;105925;1276;95097;-64
2022/02/27 08:03:54;;;;;;;50.00;26.80;;;;;;;2.08;63.89;100703.44;105968;1276;94329;-65
2022/02/27 08:06:23;;;;;;;48.00;26.70;;;;;;;2.15;64.27;100701.79;105899;1275;110510;-67
2022/02/27 08:08:51;;;;;;;51.00;23.30;;;;;;;2.19;64.06;100698.23;105939;1276;96545;-67
2022/02/27 08:11:22;;;;;;;43.60;21.60;;;;;;;2.25;63.79;100705.17;105838;1276;108404;-67
2022/02/27 08:13:50;;;;;;;44.80;21.70;;;;;;;2.31;64.06;100705.96;105945;1276;96589;-67
2022/02/27 08:16:18;;;;;;;44.40;22.40;;;;;;;2.37;64.23;100704.66;105912;1276;94972;-68
2022/02/27 08:18:48;;;;;;;49.80;23.80;;;;;;;2.42;64.06;100705.49;105909;1275;110645;-69
2022/02/27 08:21:19;;;;;;;45.10;22.00;;;;;;;2.44;64.12;100703.73;105944;1276;96550;-68
2022/02/27 08:23:48;;;;;;;47.40;22.60;;;;;;;2.50;64.17;100706.62;105913;1276;108010;-68
2022/02/27 08:26:19;;;;;;;43.40;19.50;;;;;;;2.56;64.20;100705.67;105964;1276;96662;-68
2022/02/27 08:28:47;;;;;;;38.20;19.20;;;;;;;2.57;64.21;100699.17;105810;1275;96560;-69
2022/02/27 08:31:19;;;;;;;39.10;19.10;;;;;;;2.63;64.28;100698.23;105981;1275;111499;-70
2022/02/27 08:33:47;;;;;;;43.00;19.40;;;;;;;2.70;64.30;100695.48;105942;1275;96519;-69
2022/02/27 08:36:15;;;;;;;36.90;18.20;;;;;;;2.79;64.35;100693.61;105856;1274;108363;-68
2022/02/27 08:38:47;;;;;;;35.40;15.60;;;;;;;2.92;64.13;100698.84;105907;1276;97728;-68
2022/02/27 08:41:15;;;;;;;34.90;16.60;;;;;;;3.06;64.32;100696.02;105912;1276;96759;-69
2022/02/27 08:43:43;;;;;;;29.80;14.30;;;;;;;3.17;64.16;100694.95;105961;1275;110705;-68
2022/02/27 08:46:14;;;;;;;33.60;15.10;;;;;;;3.25;64.52;100693.08;106047;1276;96717;-70
2022/02/27 08:48:50;;;;;;;41.90;16.10;;;;;;;3.32;64.54;100696.46;106077;1273;108339;-69
2022/02/27 08:51:18;;;;;;;31.20;15.20;;;;;;;3.38;64.40;100697.09;106035;1273;96512;-69
2022/02/27 08:53:46;;;;;;;28.50;12.90;;;;;;;3.49;64.58;100697.42;106050;1273;95134;-71
2022/02/27 08:56:14;;;;;;;32.40;14.60;;;;;;;3.66;64.53;100692.21;106083;1273;110665;-72
2022/02/27 08:58:43;;;;;;;29.90;13.10;;;;;;;3.92;64.56;100686.45;106095;1273;96537;-71
2022/02/27 09:01:11;;;;;;;28.90;14.80;;;;;;;4.25;64.68;100685.64;106026;1276;108400;-68
2022/02/27 09:03:41;;;;;;;32.80;15.70;;;;;;;4.57;64.56;100684.27;105975;1273;96682;-69
2022/02/27 09:06:10;;;;;;;34.80;15.90;;;;;;;4.87;64.57;100687.63;106097;1273;95622;-69
2022/02/27 09:08:41;;;;;;;32.70;16.50;;;;;;;5.24;64.80;100682.73;106059;1273;110598;-70
2022/02/27 09:11:11;;;;;;;34.80;16.20;;;;;;;5.63;64.88;100674.70;106134;1273;96656;-68
2022/02/27 09:13:39;;;;;;;31.90;14.30;;;;;;;6.02;64.79;100667.49;105982;1274;108079;-71
2022/02/27 09:16:11;;;;;;;27.00;12.00;;;;;;;6.47;64.99;100666.38;106032;1274;94624;-68
2022/02/27 09:18:39;;;;;;;28.30;11.80;;;;;;;6.96;65.01;100663.48;105978;1275;97197;-70
2022/02/27 09:21:10;;;;;;;26.50;11.70;;;;;;;7.38;64.64;100659.80;106101;1273;112441;-69
2022/02/27 09:23:38;;;;;;;25.10;11.40;;;;;;;7.80;65.11;100659.08;106116;1273;96621;-68
2022/02/27 09:26:06;;;;;;;29.40;12.20;;;;;;;8.18;64.73;100654.17;106065;1273;107496;-70
2022/02/27 09:28:56;;;;;;;26.30;11.80;;;;;;;8.52;64.70;100653.64;106064;1273;96627;-69
2022/02/27 09:31:24;;;;;;;26.10;12.20;;;;;;;8.78;64.65;100649.77;106081;1273;96519;-70
2022/02/27 09:33:56;;;;;;;27.70;11.30;;;;;;;9.15;64.92;100655.20;106170;1273;110657;-69
2022/02/27 09:36:26;;;;;;;29.00;11.70;;;;;;;9.56;64.89;100650.46;106136;1273;96239;-70
2022/02/27 09:38:58;;;;;;;25.30;11.60;;;;;;;9.69;64.08;100650.80;106098;1273;108415;-68
2022/02/27 09:41:25;;;;;;;25.60;11.70;;;;;;;9.86;64.59;100648.13;106239;1273;96635;-70
2022/02/27 09:44:03;;;;;;;23.60;10.50;;;;;;;9.91;64.07;100650.02;106120;1273;94253;-70
2022/02/27 09:46:33;;;;;;;24.20;11.00;;;;;;;9.82;63.95;100650.45;106207;1273;110052;-69
2022/02/27 09:49:07;;;;;;;28.50;11.80;;;;;;;9.72;64.07;100649.41;106150;1273;95049;-70
2022/02/27 09:51:35;;;;;;;26.80;12.00;;;;;;;9.65;63.86;100648.48;105989;1273;108311;-70
2022/02/27 09:54:03;;;;;;;27.60;11.50;;;;;;;9.69;63.80;100640.71;106094;1273;96545;-67
2022/02/27 09:56:36;;;;;;;28.70;12.00;;;;;;;9.71;63.33;100642.04;106071;1273;96609;-70
2022/02/27 09:59:08;;;;;;;27.60;12.10;;;;;;;9.56;63.38;100637.91;106143;1271;110132;-69
2022/02/27 10:02:06;;;;;;;27.40;12.00;;;;;;;9.61;63.77;100633.59;105996;1274;96577;-71
2022/02/27 10:04:45;;;;;;;29.80;13.40;;;;;;;9.68;63.43;100628.36;105980;1274;107636;-71
2022/02/27 10:07:19;;;;;;;22.80;10.80;;;;;;;9.43;63.23;100623.60;106037;1274;96556;-67
2022/02/27 10:09:48;;;;;;;27.20;12.00;;;;;;;9.52;63.50;100625.52;106078;1274;94867;-68
2022/02/27 10:12:24;;;;;;;25.60;11.40;;;;;;;9.62;63.35;100625.94;105988;1274;110697;-67
2022/02/27 10:15:08;;;;;;;29.70;11.30;;;;;;;9.80;63.51;100621.61;105983;1274;96544;-71
2022/02/27 10:17:44;;;;;;;25.00;11.30;;;;;;;10.14;64.00;100619.23;105957;1275;107710;-68
2022/02/27 10:20:20;;;;;;;26.00;11.70;;;;;;;10.30;63.94;100614.60;106088;1273;95294;-69
2022/02/27 10:22:54;;;;;;;25.60;11.40;;;;;;;10.29;63.61;100611.27;106036;1274;95627;-69
2022/02/27 10:25:27;;;;;;;24.50;10.30;;;;;;;10.22;63.56;100610.16;106104;1273;109857;-68
2022/02/27 10:28:04;;;;;;;23.60;11.10;;;;;;;10.03;63.08;100606.42;106115;1273;96539;-70
2022/02/27 10:30:38;;;;;;;28.40;11.30;;;;;;;9.78;62.89;100606.49;106081;1273;107430;-69
2022/02/27 10:33:11;;;;;;;25.80;9.40;;;;;;;9.59;62.94;100608.00;105974;1274;96488;-69
2022/02/27 10:35:48;;;;;;;21.30;8.20;;;;;;;9.39;62.78;100608.88;106123;1273;94252;-69
2022/02/27 10:39:00;;;;;;;24.30;8.50;;;;;;;9.12;62.41;100607.53;106084;1273;110687;-69
2022/02/27 10:41:41;;;;;;;27.20;9.80;;;;;;;8.79;62.49;100603.58;106051;1273;96527;-68
2022/02/27 10:44:13;;;;;;;26.10;9.40;;;;;;;8.60;62.54;100598.68;106032;1273;108364;-68
2022/02/27 10:46:42;;;;;;;;;;;;;;;8.43;62.50;100598.44;106048;1273;94267;-69
2022/02/27 10:49:10;;;;;;;23.60;8.60;;;;;;;8.27;62.45;100594.47;106056;1273;94248;-69
2022/02/27 10:51:39;;;;;;;20.60;8.20;;;;;;;8.15;62.19;100598.25;106048;1273;110614;-68
2022/02/27 10:54:09;;;;;;;25.30;9.20;;;;;;;8.03;62.20;100598.16;106171;1273;95044;-69
2022/02/27 10:56:38;;;;;;;23.90;9.10;;;;;;;7.92;62.13;100593.13;106151;1273;108396;-68
2022/02/27 10:59:13;;;;;;;28.00;10.40;;;;;;;7.81;61.92;100589.80;106126;1273;96498;-68
2022/02/27 11:01:40;;;;;;;25.70;9.70;;;;;;;7.75;62.07;100584.73;106122;1274;96526;-69
2022/02/27 11:04:15;;;;;;;29.20;10.00;;;;;;;7.68;61.93;100583.73;106109;1273;110672;-69
2022/02/27 11:06:43;;;;;;;22.10;8.60;;;;;;;7.62;61.68;100578.48;106165;1272;96562;-69
2022/02/27 11:09:12;;;;;;;21.80;8.90;;;;;;;7.50;61.59;100576.82;105906;1273;108387;-69
2022/02/27 11:11:42;;;;;;;22.80;8.30;;;;;;;7.41;61.52;100579.92;106994;1273;96525;-69
2022/02/27 11:14:12;;;;;;;19.50;7.40;;;;;;;7.35;61.34;100577.69;105948;1273;95400;-70
2022/02/27 11:16:42;;;;;;;21.50;7.70;;;;;;;7.31;61.37;100569.87;106005;1273;110684;-71
2022/02/27 11:19:13;;;;;;;37.60;20.50;;;;;;;7.27;61.25;100571.94;106033;1273;96552;-70